• Join FlightAware (Why Join?)
  • Login
  • US Flag 
10:30PM EST


 

Airport Tracker/Info


-or-


 

Live Flight TrackerFlight Track Log ✈ SWA3025 ✈ 29-Dec-2012 ✈ KDEN - KPHX

Flight Track Log - Related Links

Times and Time Zones

All times are in EST time to prevent confusion due to time zone crossing. See the SWA3025 flight status page for this flight to view local times or setup timezone preferences in your user account.

Time Position Orientation Groundspeed Altitude Reporting Facility
EST Latitude Longitude Course Direction KTS MPH feet Rate Location/Type
01:27PM 39.8167 -104.6667 180° South 161 185 7,300  Level Denver TRACON
01:28PM 39.7500 -104.6667 180° South 241 277 9,500 2,100 Climbing Denver TRACON
01:29PM 39.6519 -104.7206 203° Southwest 309 356 12,300 2,700 Climbing Denver Center
01:30PM 39.5631 -104.7817 208° Southwest 357 411 15,600 3,240 Climbing Denver Center
01:31PM 39.4628 -104.8481 207° Southwest 375 432 19,000 3,060 Climbing Denver Center
01:32PM 39.3697 -104.9100 207° Southwest 376 433 22,000 2,700 Climbing Denver Center
01:33PM 39.2753 -104.9728 207° Southwest 384 442 24,600 2,220 Climbing Denver Center
01:34PM 39.1758 -105.0386 207° Southwest 394 453 26,700 1,980 Climbing Denver Center
01:35PM 39.0542 -105.1122 205° Southwest 412 474 28,800 1,560 Climbing Denver Center
01:36PM 38.9464 -105.1772 205° Southwest 423 487 30,000 540 Climbing Denver Center
01:37PM 38.8389 -105.2386 204° Southwest 421 484 30,000 1,020 Level Denver Center
01:38PM 38.7333 -105.3003 205° Southwest 416 479 32,200 1,440 Climbing Denver Center
01:40PM 38.6308 -105.3594 204° Southwest 405 466 33,000 840 Climbing Denver Center
01:41PM 38.5267 -105.4133 202° Southwest 403 464 34,000 480 Climbing Denver Center
01:42PM 38.4164 -105.4481 194° South 400 460 34,000 300 Level Denver Center
01:43PM 38.2931 -105.4933 196° South 405 466 34,700 720 Climbing Denver Center
01:44PM 38.1903 -105.5281 195° South 402 463 35,600 720 Climbing Denver Center
01:45PM 38.0947 -105.6219 218° Southwest 399 459 36,200 1,140 Climbing Denver Center
01:46PM 38.0208 -105.7161 225° Southwest 392 451 38,000 840 Climbing Denver Center
01:47PM 37.9400 -105.8225 226° Southwest 378 435 38,000  Level Denver Center
01:48PM 37.8689 -105.9147 226° Southwest 381 438 38,000  Level Denver Center
01:49PM 37.7861 -106.0197 225° Southwest 378 435 38,000  Level Denver Center
01:50PM 37.7161 -106.1083 225° Southwest 374 430 38,000  Level Denver Center
01:51PM 37.6372 -106.2111 226° Southwest 373 429 38,000  Level Denver Center
01:52PM 37.5675 -106.3025 226° Southwest 376 433 38,000  Level Denver Center
01:53PM 37.4850 -106.4061 225° Southwest 375 432 38,000  Level Denver Center
01:54PM 37.4147 -106.4950 225° Southwest 374 430 38,000  Level Denver Center
01:55PM 37.3331 -106.5992 225° Southwest 375 432 38,000  Level Denver Center
01:56PM 37.2631 -106.6892 226° Southwest 375 432 38,000  Level Denver Center
01:57PM 37.1800 -106.7936 225° Southwest 377 434 38,000  Level Denver Center
01:58PM 37.1097 -106.8822 225° Southwest 377 434 38,000  Level Denver Center
01:59PM 37.0406 -106.9717 226° Southwest 373 429 38,000  Level Denver Center
02:00PM 36.9586 -107.0733 225° Southwest 372 428 38,000  Level Denver Center
02:01PM 36.8886 -107.1603 225° Southwest 371 427 38,000  Level Denver Center
02:02PM 36.8064 -107.2619 225° Southwest 372 428 38,000  Level Denver Center
02:03PM 36.7364 -107.3494 225° Southwest 372 428 38,000  Level Denver Center
02:04PM 36.6544 -107.4511 225° Southwest 372 428 38,000  Level Denver Center
02:05PM 36.5831 -107.5389 225° Southwest 375 432 38,000  Level Denver Center
02:06PM 36.5008 -107.6406 225° Southwest 374 430 38,000  Level Denver Center
02:07PM 36.4294 -107.7281 225° Southwest 375 432 38,000  Level Denver Center
02:09PM 36.3456 -107.8300 224° Southwest 375 432 38,000  Level Albuquerque Center
02:10PM 36.2739 -107.9156 224° Southwest 375 432 38,000  Level Denver Center
02:11PM 36.1908 -108.0183 225° Southwest 376 433 38,000  Level Denver Center
02:12PM 36.1186 -108.1050 224° Southwest 376 433 38,000  Level Denver Center
02:13PM 36.0361 -108.2122 226° Southwest 380 437 38,000  Level Albuquerque Center
02:15PM 35.8919 -108.3942 226° Southwest 385 443 38,000 -300 Level Denver Center
02:16PM 35.8108 -108.4986 226° Southwest 380 437 37,100 -960 Descending Albuquerque Center
02:17PM 35.7306 -108.5994 226° Southwest 371 427 36,000 -540 Descending Albuquerque Center
02:18PM 35.6594 -108.6883 225° Southwest 374 430 36,000  Level Albuquerque Center
02:19PM 35.5881 -108.7778 226° Southwest 378 435 36,000 -540 Level Albuquerque Center
02:20PM 35.5039 -108.8833 226° Southwest 383 441 34,900 -1,020 Descending Albuquerque Center
02:21PM 35.4300 -108.9747 225° Southwest 389 448 34,000 -480 Descending Albuquerque Center
02:22PM 35.3439 -109.0808 225° Southwest 391 450 34,000  Level Albuquerque Center
02:23PM 35.2717 -109.1717 226° Southwest 390 449 34,000  Level Albuquerque Center
02:24PM 35.1869 -109.2758 225° Southwest 387 445 34,000  Level Albuquerque Center
02:25PM 35.1144 -109.3653 225° Southwest 387 445 34,000  Level Albuquerque Center
02:26PM 35.0292 -109.4686 225° Southwest 387 445 34,000  Level Albuquerque Center
02:27PM 34.9561 -109.5539 224° Southwest 383 441 34,000  Level Albuquerque Center
02:28PM 34.8836 -109.6403 224° Southwest 381 438 34,000  Level Albuquerque Center
02:29PM 34.7997 -109.7431 225° Southwest 381 438 34,000  Level Albuquerque Center
02:30PM 34.7283 -109.8317 226° Southwest 382 440 34,000  Level Albuquerque Center
02:31PM 34.6706 -109.9583 241° Southwest 387 445 34,000  Level Albuquerque Center
02:32PM 34.6289 -110.0700 246° West 381 438 34,000  Level Albuquerque Center
02:33PM 34.5833 -110.2100 248° West 393 452 34,000  Level Albuquerque Center
02:34PM 34.5358 -110.3156 241° Southwest 380 437 34,000 -540 Level Albuquerque Center
02:35PM 34.4906 -110.4464 247° West 392 451 33,000 -540 Descending Albuquerque Center
02:36PM 34.4486 -110.5661 247° West 391 450 33,000 -1,260 Level Albuquerque Center
02:37PM 34.4050 -110.6817 245° Southwest 384 442 30,400 -2,400 Descending Albuquerque Center
02:38PM 34.3547 -110.7900 241° Southwest 376 433 28,100 -1,200 Descending Albuquerque Center
02:40PM 34.2892 -110.8825 229° Southwest 367 422 28,000 -1,260 Descending Albuquerque Center
02:41PM 34.2081 -110.9853 226° Southwest 353 406 25,500 -2,280 Descending Albuquerque Center
02:42PM 34.1431 -111.0689 227° Southwest 345 397 23,300 -2,100 Descending Albuquerque Center
02:43PM 34.0789 -111.1522 227° Southwest 342 394 21,200 -2,040 Descending Albuquerque Center
02:44PM 34.0158 -111.2322 226° Southwest 338 389 19,100 -2,040 Descending Albuquerque Center
02:45PM 33.9575 -111.3061 226° Southwest 319 367 17,100 -1,500 Descending Albuquerque Center
02:46PM 33.8981 -111.3811 226° Southwest 310 357 16,000 -1,080 Descending Albuquerque Center
02:47PM 33.8544 -111.4519 233° Southwest 267 307 14,900 -1,260 Descending Albuquerque Center
02:48PM 33.8150 -111.5303 239° Southwest 271 312 13,400 -1,620 Descending Albuquerque Center
02:49PM 33.7661 -111.6219 237° Southwest 270 311 11,600 -1,620 Descending Albuquerque Center
02:50PM 33.7261 -111.6969 237° Southwest 265 305 10,100 -780 Descending Albuquerque Center
02:51PM 33.6867 -111.7697 237° Southwest 261 300 10,000 -300 Descending Albuquerque Center
02:52PM 33.6475 -111.8411 237° Southwest 257 296 9,600 -480 Descending Albuquerque Center
02:53PM 33.6114 -111.9078 237° Southwest 242 278 9,100 -420 Descending Albuquerque Center
02:54PM 33.5767 -111.9725 237° Southwest 232 267 8,800 -780 Descending Albuquerque Center
02:55PM 33.5425 -112.0386 238° Southwest 226 260 7,500 -1,260 Descending Albuquerque Center
02:56PM 33.5253 -112.1219 256° West 228 262 6,300 -1,440 Descending Albuquerque Center
02:57PM 33.5169 -112.1944 262° West 228 262 4,600 -1,320 Descending Albuquerque Center
02:58PM 33.4681 -112.1869 173° South 188 216 3,600 -840 Descending Albuquerque Center
02:59PM 33.4425 -112.1294 118° Southeast 178 205 2,900 -720 Descending Albuquerque Center
03:00PM 33.4408 -112.0881 93° East 145 167 2,200 -780 Descending Albuquerque Center
03:01PM 33.4403 -112.0375 91° East 136 157 1,400 -540 Descending Albuquerque Center
03:02PM 33.4397 -111.9897 91° East 136 157 1,100 -300 Descending Albuquerque Center